createdAt,value
2019-01-09T00:00:08.667Z,1006.00
2019-01-09T00:01:08.656Z,1006.00
2019-01-09T00:02:08.654Z,1006.06
2019-01-09T00:03:08.643Z,1006.08
2019-01-09T00:04:08.879Z,1006.08
2019-01-09T00:05:08.618Z,1006.13
2019-01-09T00:06:08.610Z,1006.15
2019-01-09T00:07:08.598Z,1006.11
2019-01-09T00:08:08.593Z,1006.27
2019-01-09T00:09:08.579Z,1006.23
2019-01-09T00:10:08.573Z,1006.39
2019-01-09T00:11:08.561Z,1006.33
2019-01-09T00:12:08.557Z,1006.33
2019-01-09T00:13:08.542Z,1006.21
2019-01-09T00:14:08.534Z,1006.19
2019-01-09T00:15:08.523Z,1006.22
2019-01-09T00:16:08.516Z,1006.15
2019-01-09T00:17:08.504Z,1006.10
2019-01-09T00:18:08.506Z,1006.03
2019-01-09T00:19:08.485Z,1005.93
2019-01-09T00:20:08.479Z,1005.86
2019-01-09T00:21:08.466Z,1005.86
2019-01-09T00:22:08.458Z,1005.90
2019-01-09T00:23:08.446Z,1005.87
2019-01-09T00:24:08.450Z,1005.95
2019-01-09T00:25:08.428Z,1006.04
2019-01-09T00:26:08.420Z,1006.14
2019-01-09T00:27:08.412Z,1006.18
2019-01-09T00:28:08.402Z,1006.12
2019-01-09T00:29:08.395Z,1006.07
2019-01-09T00:30:08.384Z,1006.09
2019-01-09T00:31:08.372Z,1006.21
2019-01-09T00:32:08.364Z,1006.23
2019-01-09T00:33:08.352Z,1006.25
2019-01-09T00:34:08.352Z,1006.16
2019-01-09T00:35:08.341Z,1006.21
2019-01-09T00:36:08.337Z,1006.12
2019-01-09T00:37:08.315Z,1006.15
2019-01-09T00:38:08.306Z,1006.21
2019-01-09T00:39:08.295Z,1006.11
2019-01-09T00:40:08.299Z,1006.17
2019-01-09T00:41:08.290Z,1006.12
2019-01-09T00:42:08.266Z,1006.13
2019-01-09T00:43:08.259Z,1006.17
2019-01-09T00:44:08.247Z,1006.16
2019-01-09T00:45:08.252Z,1006.18
2019-01-09T00:46:08.232Z,1006.10
2019-01-09T00:47:08.221Z,1006.07
2019-01-09T00:48:08.212Z,1006.00
2019-01-09T00:49:08.202Z,1006.08
2019-01-09T00:50:08.189Z,1006.08
2019-01-09T00:51:08.182Z,1006.15
2019-01-09T00:52:08.171Z,1006.16
2019-01-09T00:53:08.164Z,1006.21
2019-01-09T00:54:08.151Z,1006.20
2019-01-09T00:55:08.146Z,1006.16
2019-01-09T00:56:08.132Z,1006.22
2019-01-09T00:57:08.129Z,1006.25
2019-01-09T00:58:08.124Z,1006.13
2019-01-09T00:59:08.105Z,1006.08
2019-01-09T01:00:08.094Z,1006.18
2019-01-09T01:01:08.088Z,1006.08
2019-01-09T01:02:08.084Z,1006.08
2019-01-09T01:03:08.069Z,1006.14
2019-01-09T01:04:08.055Z,1006.11
2019-01-09T01:05:08.048Z,1006.17
2019-01-09T01:06:08.040Z,1006.19
2019-01-09T01:07:08.028Z,1006.20
2019-01-09T01:08:08.034Z,1006.15
2019-01-09T01:09:08.009Z,1006.22
2019-01-09T01:10:07.996Z,1006.22
2019-01-09T01:11:07.998Z,1006.25
2019-01-09T01:12:07.977Z,1006.25
2019-01-09T01:13:07.982Z,1006.22
2019-01-09T01:14:07.956Z,1006.31
2019-01-09T01:15:07.950Z,1006.32
2019-01-09T01:16:07.958Z,1006.19
2019-01-09T01:17:08.080Z,1006.32
2019-01-09T01:18:07.931Z,1006.36
2019-01-09T01:19:07.910Z,1006.37
2019-01-09T01:20:07.898Z,1006.40
2019-01-09T01:21:07.896Z,1006.36
2019-01-09T01:22:07.900Z,1006.40
2019-01-09T01:23:07.897Z,1006.32
2019-01-09T01:24:07.872Z,1006.38
2019-01-09T01:25:07.859Z,1006.45
2019-01-09T01:26:07.842Z,1006.38
2019-01-09T01:27:07.831Z,1006.45
2019-01-09T01:28:07.819Z,1006.46
2019-01-09T01:29:07.814Z,1006.49
2019-01-09T01:30:07.813Z,1006.53
2019-01-09T01:31:07.792Z,1006.48
2019-01-09T01:32:07.781Z,1006.57
2019-01-09T01:33:07.774Z,1006.60
2019-01-09T01:34:07.763Z,1006.54
2019-01-09T01:35:07.763Z,1006.61
2019-01-09T01:36:07.741Z,1006.58
2019-01-09T01:37:07.732Z,1006.64
2019-01-09T01:38:07.723Z,1006.57
2019-01-09T01:39:07.714Z,1006.59
2019-01-09T01:40:07.702Z,1006.66
2019-01-09T01:41:07.705Z,1006.68
2019-01-09T01:42:07.682Z,1006.70
2019-01-09T01:43:07.674Z,1006.73
2019-01-09T01:44:07.661Z,1006.71
2019-01-09T01:45:07.656Z,1006.71
2019-01-09T01:46:07.642Z,1006.64
2019-01-09T01:47:07.636Z,1006.72
2019-01-09T01:48:07.624Z,1006.77
2019-01-09T01:49:07.615Z,1006.70
2019-01-09T01:50:07.603Z,1006.69
2019-01-09T01:51:07.606Z,1006.76
2019-01-09T01:52:07.584Z,1006.86
2019-01-09T01:53:07.577Z,1006.72
2019-01-09T01:54:07.581Z,1006.76
2019-01-09T01:55:07.558Z,1006.78
2019-01-09T01:56:07.548Z,1006.83
2019-01-09T01:57:07.555Z,1006.88
2019-01-09T01:58:07.827Z,1006.80
2019-01-09T01:59:07.521Z,1006.91
2019-01-09T02:00:07.510Z,1006.91
2019-01-09T02:01:07.500Z,1006.90
2019-01-09T02:02:07.494Z,1006.89
2019-01-09T02:03:07.481Z,1006.91
2019-01-09T02:04:07.469Z,1006.95
2019-01-09T02:05:07.462Z,1007.00
2019-01-09T02:06:07.451Z,1007.01
2019-01-09T02:07:07.441Z,1007.00
2019-01-09T02:08:07.428Z,1006.97
2019-01-09T02:09:07.422Z,1007.00
2019-01-09T02:10:07.408Z,1007.07
2019-01-09T02:11:07.401Z,1007.11
2019-01-09T02:12:07.393Z,1007.11
2019-01-09T02:13:07.385Z,1007.05
2019-01-09T02:14:07.369Z,1007.14
2019-01-09T02:15:07.362Z,1007.12
2019-01-09T02:16:07.359Z,1007.11
2019-01-09T02:17:07.343Z,1007.13
2019-01-09T02:18:07.330Z,1007.18
2019-01-09T02:19:07.324Z,1007.13
2019-01-09T02:20:07.312Z,1007.14
2019-01-09T02:21:07.312Z,1007.07
2019-01-09T02:22:07.290Z,1007.12
2019-01-09T02:23:07.298Z,1007.11
2019-01-09T02:24:07.275Z,1007.12
2019-01-09T02:25:07.266Z,1007.14
2019-01-09T02:26:07.251Z,1007.15
2019-01-09T02:27:07.243Z,1007.12
2019-01-09T02:28:07.232Z,1007.10
2019-01-09T02:29:07.232Z,1007.10
2019-01-09T02:30:07.214Z,1007.05
2019-01-09T02:31:07.204Z,1007.07
2019-01-09T02:32:07.196Z,1007.09
2019-01-09T02:33:07.184Z,1007.13
2019-01-09T02:34:07.186Z,1007.13
2019-01-09T02:35:07.179Z,1007.16
2019-01-09T02:36:13.242Z,1007.24
2019-01-09T02:37:07.147Z,1007.23
2019-01-09T02:38:07.131Z,1007.22
2019-01-09T02:39:07.128Z,1007.26
2019-01-09T02:40:07.129Z,1007.27
2019-01-09T02:41:07.258Z,1007.26
2019-01-09T02:42:07.093Z,1007.30
2019-01-09T02:43:07.086Z,1007.33
2019-01-09T02:44:07.080Z,1007.31
2019-01-09T02:45:07.069Z,1007.32
2019-01-09T02:46:07.073Z,1007.30
2019-01-09T02:47:07.067Z,1007.32
2019-01-09T02:48:07.037Z,1007.34
2019-01-09T02:49:07.027Z,1007.38
2019-01-09T02:50:07.019Z,1007.33
2019-01-09T02:51:07.009Z,1007.38
2019-01-09T02:52:07.004Z,1007.37
2019-01-09T02:53:07.003Z,1007.50
2019-01-09T02:54:06.986Z,1007.46
2019-01-09T02:55:06.971Z,1007.39
2019-01-09T02:56:06.956Z,1007.42
2019-01-09T02:57:06.950Z,1007.36
2019-01-09T02:58:06.937Z,1007.40
2019-01-09T02:59:06.931Z,1007.43
2019-01-09T03:00:06.918Z,1007.40
2019-01-09T03:01:06.912Z,1007.40
2019-01-09T03:02:06.903Z,1007.40
2019-01-09T03:03:06.892Z,1007.41
2019-01-09T03:04:06.880Z,1007.39
2019-01-09T03:05:06.875Z,1007.46
2019-01-09T03:06:06.861Z,1007.48
2019-01-09T03:07:06.859Z,1007.49
2019-01-09T03:08:06.844Z,1007.46
2019-01-09T03:09:06.834Z,1007.56
2019-01-09T03:10:06.822Z,1007.49
2019-01-09T03:11:06.823Z,1007.38
2019-01-09T03:12:06.803Z,1007.42
2019-01-09T03:13:06.800Z,1007.48
2019-01-09T03:14:06.788Z,1007.39
2019-01-09T03:15:06.777Z,1007.51
2019-01-09T03:16:06.765Z,1007.51
2019-01-09T03:17:06.756Z,1007.58
2019-01-09T03:18:06.748Z,1007.54
2019-01-09T03:19:06.745Z,1007.59
2019-01-09T03:20:06.736Z,1007.59
2019-01-09T03:21:06.718Z,1007.63
2019-01-09T03:22:06.714Z,1007.61
2019-01-09T03:23:06.698Z,1007.59
2019-01-09T03:24:06.687Z,1007.61
2019-01-09T03:25:06.681Z,1007.63
2019-01-09T03:26:06.665Z,1007.61
2019-01-09T03:27:06.657Z,1007.59
2019-01-09T03:28:06.646Z,1007.62
2019-01-09T03:29:06.638Z,1007.59
2019-01-09T03:30:06.628Z,1007.59
2019-01-09T03:31:06.619Z,1007.57
2019-01-09T03:32:06.607Z,1007.57
2019-01-09T03:33:06.599Z,1007.57
2019-01-09T03:34:06.585Z,1007.59
2019-01-09T03:35:06.578Z,1007.58
2019-01-09T03:36:06.565Z,1007.55
2019-01-09T03:37:06.559Z,1007.53
2019-01-09T03:38:06.545Z,1007.55
2019-01-09T03:39:06.539Z,1007.47
2019-01-09T03:40:06.527Z,1007.50
2019-01-09T03:41:06.519Z,1007.58
2019-01-09T03:42:06.505Z,1007.53
2019-01-09T03:43:06.498Z,1007.49
2019-01-09T03:44:06.487Z,1007.51
2019-01-09T03:45:06.478Z,1007.52
2019-01-09T03:46:06.566Z,1007.58
2019-01-09T03:47:06.459Z,1007.50
2019-01-09T03:48:06.449Z,1007.52
2019-01-09T03:49:06.438Z,1007.48
2019-01-09T03:50:06.427Z,1007.49
2019-01-09T03:51:06.418Z,1007.49
2019-01-09T03:52:06.406Z,1007.51
2019-01-09T03:53:06.399Z,1007.46
2019-01-09T03:54:06.388Z,1007.52
2019-01-09T03:55:06.379Z,1007.47
2019-01-09T03:56:06.367Z,1007.51
2019-01-09T03:57:06.359Z,1007.50
2019-01-09T03:58:06.345Z,1007.51
2019-01-09T03:59:06.339Z,1007.48
2019-01-09T04:00:06.328Z,1007.50
2019-01-09T04:01:06.322Z,1007.55
2019-01-09T04:02:06.306Z,1007.57
2019-01-09T04:03:06.298Z,1007.58
2019-01-09T04:04:06.286Z,1007.58
2019-01-09T04:05:06.280Z,1007.59
2019-01-09T04:06:06.267Z,1007.65
2019-01-09T04:07:06.258Z,1007.62
2019-01-09T04:08:06.248Z,1007.64
2019-01-09T04:09:06.238Z,1007.64
2019-01-09T04:10:06.226Z,1007.67
2019-01-09T04:11:06.468Z,1007.67
2019-01-09T04:12:06.207Z,1007.66
2019-01-09T04:13:06.199Z,1007.68
2019-01-09T04:14:06.188Z,1007.65
2019-01-09T04:15:06.178Z,1007.64
2019-01-09T04:16:06.167Z,1007.59
2019-01-09T04:17:06.159Z,1007.65
2019-01-09T04:18:06.153Z,1007.63
2019-01-09T04:19:06.137Z,1007.62
2019-01-09T04:20:06.126Z,1007.57
2019-01-09T04:21:06.120Z,1007.55
2019-01-09T04:22:06.106Z,1007.55
2019-01-09T04:23:06.101Z,1007.58
2019-01-09T04:24:06.098Z,1007.57
2019-01-09T04:25:06.078Z,1007.56
2019-01-09T04:26:06.071Z,1007.56
2019-01-09T04:27:06.061Z,1007.56
2019-01-09T04:28:06.046Z,1007.52
2019-01-09T04:29:06.039Z,1007.49
2019-01-09T04:30:06.032Z,1007.56
2019-01-09T04:31:06.019Z,1007.62
2019-01-09T04:32:06.005Z,1007.54
2019-01-09T04:33:05.999Z,1007.54
2019-01-09T04:34:06.235Z,1007.60
2019-01-09T04:35:05.978Z,1007.58
2019-01-09T04:36:05.964Z,1007.60
2019-01-09T04:37:05.968Z,1007.57
2019-01-09T04:38:05.943Z,1007.56
2019-01-09T04:39:05.936Z,1007.53
2019-01-09T04:40:05.926Z,1007.59
2019-01-09T04:41:05.917Z,1007.61
2019-01-09T04:42:05.907Z,1007.58
2019-01-09T04:43:05.898Z,1007.59
2019-01-09T04:44:05.884Z,1007.57
2019-01-09T04:45:05.878Z,1007.52
2019-01-09T04:46:05.864Z,1007.56
2019-01-09T04:47:05.858Z,1007.60
2019-01-09T04:48:05.843Z,1007.57
2019-01-09T04:49:05.835Z,1007.52
2019-01-09T04:50:05.825Z,1007.52
2019-01-09T04:51:05.816Z,1007.49
2019-01-09T04:52:05.803Z,1007.51
2019-01-09T04:53:05.795Z,1007.55
2019-01-09T04:54:05.783Z,1007.58
2019-01-09T04:55:05.774Z,1007.56
2019-01-09T04:56:05.769Z,1007.57
2019-01-09T04:57:05.838Z,1007.54
2019-01-09T04:58:05.744Z,1007.57
2019-01-09T04:59:05.734Z,1007.58
2019-01-09T05:00:05.723Z,1007.59
2019-01-09T05:01:05.713Z,1007.62
2019-01-09T05:02:05.703Z,1007.60
2019-01-09T05:03:05.691Z,1007.59
2019-01-09T05:04:05.688Z,1007.61
2019-01-09T05:05:05.682Z,1007.57
2019-01-09T05:06:05.663Z,1007.56
2019-01-09T05:07:05.651Z,1007.62
2019-01-09T05:08:05.644Z,1007.60
2019-01-09T05:09:05.631Z,1007.64
2019-01-09T05:10:05.623Z,1007.60
2019-01-09T05:11:05.611Z,1007.67
2019-01-09T05:12:05.603Z,1007.61
2019-01-09T05:13:05.592Z,1007.66
2019-01-09T05:14:05.583Z,1007.70
2019-01-09T05:15:05.571Z,1007.69
2019-01-09T05:16:05.564Z,1007.71
2019-01-09T05:17:05.553Z,1007.74
2019-01-09T05:18:05.546Z,1007.77
2019-01-09T05:19:05.532Z,1007.75
2019-01-09T05:20:05.525Z,1007.75
2019-01-09T05:21:05.625Z,1007.76
2019-01-09T05:22:05.504Z,1007.63
2019-01-09T05:23:05.493Z,1007.65
2019-01-09T05:24:05.486Z,1007.69
2019-01-09T05:25:05.474Z,1007.73
2019-01-09T05:26:05.469Z,1007.72
2019-01-09T05:27:05.453Z,1007.74
2019-01-09T05:28:05.448Z,1007.75
2019-01-09T05:29:05.442Z,1007.70
2019-01-09T05:30:05.427Z,1007.68
2019-01-09T05:31:07.689Z,1007.68
2019-01-09T05:32:05.409Z,1007.74
2019-01-09T05:33:05.395Z,1007.79
2019-01-09T05:34:05.403Z,1007.81
2019-01-09T05:35:05.380Z,1007.84
2019-01-09T05:36:05.377Z,1007.80
2019-01-09T05:37:09.695Z,1007.79
2019-01-09T05:38:05.351Z,1007.76
2019-01-09T05:39:05.337Z,1007.74
2019-01-09T05:40:05.330Z,1007.71
2019-01-09T05:41:05.320Z,1007.75
2019-01-09T05:42:05.311Z,1007.71
2019-01-09T05:43:05.297Z,1007.71
2019-01-09T05:44:05.291Z,1007.73
2019-01-09T05:45:05.285Z,1007.72
2019-01-09T05:46:05.273Z,1007.75
2019-01-09T05:47:05.259Z,1007.75
2019-01-09T05:48:05.263Z,1007.73
2019-01-09T05:49:05.240Z,1007.76
2019-01-09T05:50:05.238Z,1007.78
2019-01-09T05:51:05.220Z,1007.83
2019-01-09T05:52:05.212Z,1007.80
2019-01-09T05:53:05.204Z,1007.85
2019-01-09T05:54:05.208Z,1007.88
2019-01-09T05:55:05.190Z,1007.87
2019-01-09T05:56:05.175Z,1007.85
2019-01-09T05:57:05.162Z,1007.84
2019-01-09T05:58:05.154Z,1007.83
2019-01-09T05:59:05.144Z,1007.84
2019-01-09T06:00:05.135Z,1007.85
2019-01-09T06:01:05.124Z,1007.86
2019-01-09T06:02:05.115Z,1007.88
2019-01-09T06:03:05.107Z,1007.91
2019-01-09T06:04:05.107Z,1007.93
2019-01-09T06:05:05.085Z,1007.91
2019-01-09T06:06:05.078Z,1007.87
2019-01-09T06:07:05.069Z,1007.86
2019-01-09T06:08:05.057Z,1007.86
2019-01-09T06:09:05.051Z,1007.81
2019-01-09T06:10:05.037Z,1007.86
2019-01-09T06:11:05.027Z,1007.88
2019-01-09T06:12:05.019Z,1007.84
2019-01-09T06:13:05.009Z,1007.90
2019-01-09T06:14:04.998Z,1007.88
2019-01-09T06:15:04.986Z,1007.87
2019-01-09T06:16:04.979Z,1007.94
2019-01-09T06:17:04.967Z,1007.94
2019-01-09T06:18:04.958Z,1007.97
2019-01-09T06:19:04.947Z,1007.98
2019-01-09T06:20:04.940Z,1007.95
2019-01-09T06:21:04.928Z,1007.96
2019-01-09T06:22:04.919Z,1007.94
2019-01-09T06:23:04.908Z,1007.94
2019-01-09T06:24:04.904Z,1008.00
2019-01-09T06:25:04.889Z,1007.96
2019-01-09T06:26:04.880Z,1007.92
2019-01-09T06:27:04.873Z,1007.98
2019-01-09T06:28:04.860Z,1007.96
2019-01-09T06:29:04.849Z,1007.94
2019-01-09T06:30:04.840Z,1007.96
2019-01-09T06:31:04.830Z,1007.97
2019-01-09T06:32:04.822Z,1007.94
2019-01-09T06:33:04.810Z,1008.00
2019-01-09T06:34:04.801Z,1008.01
2019-01-09T06:35:04.793Z,1008.03
2019-01-09T06:36:04.785Z,1007.99
2019-01-09T06:37:04.792Z,1007.97
2019-01-09T06:38:04.761Z,1007.99
2019-01-09T06:39:04.750Z,1007.97
2019-01-09T06:40:04.743Z,1007.97
2019-01-09T06:41:04.731Z,1007.96
2019-01-09T06:42:04.725Z,1007.98
2019-01-09T06:43:04.711Z,1007.95
2019-01-09T06:44:04.704Z,1007.94
2019-01-09T06:45:04.692Z,1008.00
2019-01-09T06:46:04.684Z,1007.98
2019-01-09T06:47:04.672Z,1008.01
2019-01-09T06:48:04.665Z,1008.03
2019-01-09T06:49:04.653Z,1008.05
2019-01-09T06:50:04.645Z,1008.07
2019-01-09T06:51:04.651Z,1008.08
2019-01-09T06:52:04.629Z,1008.06
2019-01-09T06:53:04.632Z,1008.11
2019-01-09T06:54:04.662Z,1008.07
2019-01-09T06:55:04.616Z,1008.08
2019-01-09T06:56:04.725Z,1008.11
2019-01-09T06:57:04.577Z,1008.15
2019-01-09T06:58:04.569Z,1008.14
2019-01-09T06:59:04.557Z,1008.21
2019-01-09T07:00:04.550Z,1008.27
2019-01-09T07:01:04.540Z,1008.30
2019-01-09T07:02:04.534Z,1008.39
2019-01-09T07:03:04.519Z,1008.36
2019-01-09T07:04:04.517Z,1008.36
2019-01-09T07:05:04.501Z,1008.36
2019-01-09T07:06:04.492Z,1008.34
2019-01-09T07:07:04.482Z,1008.29
2019-01-09T07:08:04.475Z,1008.25
2019-01-09T07:09:04.463Z,1008.26
2019-01-09T07:10:04.705Z,1008.34
2019-01-09T07:11:04.447Z,1008.34
2019-01-09T07:12:04.435Z,1008.32
2019-01-09T07:13:04.425Z,1008.35
2019-01-09T07:14:04.417Z,1008.34
2019-01-09T07:15:11.312Z,1008.34
2019-01-09T07:16:04.455Z,1008.39
2019-01-09T07:17:04.385Z,1008.37
2019-01-09T07:18:04.377Z,1008.40
2019-01-09T07:19:04.367Z,1008.43
2019-01-09T07:20:04.361Z,1008.45
2019-01-09T07:21:04.360Z,1008.47
2019-01-09T07:22:04.339Z,1008.49
2019-01-09T07:23:04.326Z,1008.56
2019-01-09T07:24:04.321Z,1008.50
2019-01-09T07:25:04.308Z,1008.56
2019-01-09T07:26:04.306Z,1008.60
2019-01-09T07:27:04.304Z,1008.58
2019-01-09T07:28:04.281Z,1008.62
2019-01-09T07:29:04.271Z,1008.58
2019-01-09T07:30:04.262Z,1008.58
2019-01-09T07:31:04.250Z,1008.58
2019-01-09T07:32:04.243Z,1008.57
2019-01-09T07:33:04.481Z,1008.62
2019-01-09T07:34:04.523Z,1008.63
2019-01-09T07:35:04.211Z,1008.63
2019-01-09T07:36:04.203Z,1008.64
2019-01-09T07:37:04.192Z,1008.65
2019-01-09T07:38:04.190Z,1008.66
2019-01-09T07:39:04.472Z,1008.69
2019-01-09T07:40:04.165Z,1008.71
2019-01-09T07:41:04.159Z,1008.75
2019-01-09T07:42:04.146Z,1008.76
2019-01-09T07:43:04.134Z,1008.76
2019-01-09T07:44:04.126Z,1008.76
2019-01-09T07:45:04.115Z,1008.78
2019-01-09T07:46:04.107Z,1008.83
2019-01-09T07:47:04.095Z,1008.81
2019-01-09T07:48:04.088Z,1008.80
2019-01-09T07:49:04.075Z,1008.80
2019-01-09T07:50:04.067Z,1008.79
2019-01-09T07:51:04.055Z,1008.78
2019-01-09T07:52:04.130Z,1008.79
2019-01-09T07:53:04.036Z,1008.76
2019-01-09T07:54:04.028Z,1008.77
2019-01-09T07:55:04.017Z,1008.75
2019-01-09T07:56:04.008Z,1008.77
2019-01-09T07:57:03.996Z,1008.82
2019-01-09T07:58:03.988Z,1008.82
2019-01-09T07:59:03.977Z,1008.86
2019-01-09T08:00:03.968Z,1008.82
2019-01-09T08:01:03.956Z,1008.83
2019-01-09T08:02:03.951Z,1008.86
2019-01-09T08:03:03.944Z,1008.86
2019-01-09T08:04:03.928Z,1008.82
2019-01-09T08:05:03.917Z,1008.87
2019-01-09T08:06:03.908Z,1008.83
2019-01-09T08:07:03.896Z,1008.90
2019-01-09T08:08:03.888Z,1008.91
2019-01-09T08:09:03.886Z,1008.96
2019-01-09T08:10:03.868Z,1008.90
2019-01-09T08:11:03.889Z,1008.93
2019-01-09T08:12:03.848Z,1008.99
2019-01-09T08:13:03.836Z,1008.97
2019-01-09T08:14:03.828Z,1009.00
2019-01-09T08:15:03.815Z,1009.05
2019-01-09T08:16:03.862Z,1009.04
2019-01-09T08:17:03.796Z,1009.05
2019-01-09T08:18:03.787Z,1009.07
2019-01-09T08:19:03.776Z,1009.05
2019-01-09T08:20:03.768Z,1009.09
2019-01-09T08:21:05.510Z,1009.10
2019-01-09T08:22:03.747Z,1009.08
2019-01-09T08:23:03.789Z,1009.10
2019-01-09T08:24:03.727Z,1009.11
2019-01-09T08:25:03.718Z,1009.15
2019-01-09T08:26:03.707Z,1009.15
2019-01-09T08:27:03.695Z,1009.09
2019-01-09T08:28:03.688Z,1009.16
2019-01-09T08:29:03.676Z,1009.16
2019-01-09T08:30:03.668Z,1009.20
2019-01-09T08:31:03.746Z,1009.23
2019-01-09T08:32:03.648Z,1009.24
2019-01-09T08:33:03.640Z,1009.23
2019-01-09T08:34:03.634Z,1009.24
2019-01-09T08:35:03.618Z,1009.23
2019-01-09T08:36:03.610Z,1009.24
2019-01-09T08:37:03.604Z,1009.28
2019-01-09T08:38:03.590Z,1009.27
2019-01-09T08:39:03.577Z,1009.30
2019-01-09T08:40:03.571Z,1009.27
2019-01-09T08:41:03.560Z,1009.33
2019-01-09T08:42:03.560Z,1009.34
2019-01-09T08:43:03.542Z,1009.36
2019-01-09T08:44:03.533Z,1009.36
2019-01-09T08:45:03.521Z,1009.35
2019-01-09T08:46:03.813Z,1009.38
2019-01-09T08:47:03.502Z,1009.40
2019-01-09T08:48:03.498Z,1009.43
2019-01-09T08:49:03.485Z,1009.43
2019-01-09T08:50:03.477Z,1009.47
2019-01-09T08:51:03.473Z,1009.46
2019-01-09T08:52:03.468Z,1009.47
2019-01-09T08:53:03.449Z,1009.46
2019-01-09T08:54:03.438Z,1009.49
2019-01-09T08:55:03.429Z,1009.50
2019-01-09T08:56:03.445Z,1009.51
2019-01-09T08:57:03.410Z,1009.54
2019-01-09T08:58:03.410Z,1009.49
2019-01-09T08:59:03.390Z,1009.56
2019-01-09T09:00:03.383Z,1009.49
2019-01-09T09:01:03.372Z,1009.49
2019-01-09T09:02:03.368Z,1009.61
2019-01-09T09:03:03.356Z,1009.56
2019-01-09T09:04:03.347Z,1009.59
2019-01-09T09:05:03.340Z,1009.58
2019-01-09T09:06:03.332Z,1009.57
2019-01-09T09:07:03.324Z,1009.56
2019-01-09T09:08:11.618Z,1009.56
2019-01-09T09:09:03.300Z,1009.61
2019-01-09T09:10:03.292Z,1009.62
2019-01-09T09:11:03.281Z,1009.66
2019-01-09T09:12:03.277Z,1009.63
2019-01-09T09:13:03.267Z,1009.68
2019-01-09T09:14:03.255Z,1009.67
2019-01-09T09:15:03.248Z,1009.71
2019-01-09T09:16:03.539Z,1009.70
2019-01-09T09:17:03.240Z,1009.73
2019-01-09T09:18:03.220Z,1009.77
2019-01-09T09:19:03.214Z,1009.76
2019-01-09T09:20:03.203Z,1009.76
2019-01-09T09:21:03.196Z,1009.75
2019-01-09T09:22:03.184Z,1009.77
2019-01-09T09:23:03.178Z,1009.74
2019-01-09T09:24:03.168Z,1009.81
2019-01-09T09:25:03.161Z,1009.79
2019-01-09T09:26:03.148Z,1009.83
2019-01-09T09:27:03.143Z,1009.87
2019-01-09T09:28:03.131Z,1009.84
2019-01-09T09:29:03.152Z,1009.88
2019-01-09T09:30:03.115Z,1009.87
2019-01-09T09:31:03.108Z,1009.90
2019-01-09T09:32:03.097Z,1009.91
2019-01-09T09:33:03.102Z,1009.89
2019-01-09T09:34:03.078Z,1009.95
2019-01-09T09:35:03.072Z,1009.99
2019-01-09T09:36:03.061Z,1009.99
2019-01-09T09:37:03.058Z,1009.97
2019-01-09T09:38:03.043Z,1010.02
2019-01-09T09:39:03.037Z,1010.07
2019-01-09T09:40:03.029Z,1009.97
2019-01-09T09:41:03.019Z,1010.04
2019-01-09T09:42:03.007Z,1010.05
2019-01-09T09:43:03.001Z,1009.97
2019-01-09T09:44:02.991Z,1010.04
2019-01-09T09:45:03.011Z,1010.07
2019-01-09T09:46:02.971Z,1010.12
2019-01-09T09:47:02.965Z,1010.11
2019-01-09T09:48:02.954Z,1010.13
2019-01-09T09:49:02.955Z,1010.20
2019-01-09T09:50:02.936Z,1010.15
2019-01-09T09:51:02.929Z,1010.18
2019-01-09T09:52:03.006Z,1010.18
2019-01-09T09:53:02.912Z,1010.15
2019-01-09T09:54:02.900Z,1010.15
2019-01-09T09:55:02.895Z,1010.17
2019-01-09T09:56:02.994Z,1010.20
2019-01-09T09:57:02.883Z,1010.18
2019-01-09T09:58:05.802Z,1010.25
2019-01-09T09:59:02.859Z,1010.29
2019-01-09T10:00:02.847Z,1010.27
2019-01-09T10:01:02.840Z,1010.23
2019-01-09T10:02:02.835Z,1010.27
2019-01-09T10:03:02.821Z,1010.27
2019-01-09T10:04:02.811Z,1010.28
2019-01-09T10:05:02.808Z,1010.29
2019-01-09T10:06:02.792Z,1010.26
2019-01-09T10:07:02.786Z,1010.32
2019-01-09T10:08:02.776Z,1010.26
2019-01-09T10:09:02.769Z,1010.30
2019-01-09T10:10:02.757Z,1010.29
2019-01-09T10:11:02.750Z,1010.29
2019-01-09T10:12:02.741Z,1010.32
2019-01-09T10:13:02.734Z,1010.31
2019-01-09T10:14:02.722Z,1010.36
2019-01-09T10:15:02.718Z,1010.32
2019-01-09T10:16:02.704Z,1010.32
2019-01-09T10:17:02.700Z,1010.33
2019-01-09T10:18:02.692Z,1010.34
2019-01-09T10:19:02.684Z,1010.34
2019-01-09T10:20:02.669Z,1010.35
2019-01-09T10:21:02.663Z,1010.35
2019-01-09T10:22:02.653Z,1010.31
2019-01-09T10:23:02.646Z,1010.37
2019-01-09T10:24:02.634Z,1010.38
2019-01-09T10:25:02.627Z,1010.33
2019-01-09T10:26:02.616Z,1010.35
2019-01-09T10:27:02.609Z,1010.37
2019-01-09T10:28:02.599Z,1010.39
2019-01-09T10:29:02.592Z,1010.38
2019-01-09T10:30:02.599Z,1010.41
2019-01-09T10:31:02.582Z,1010.29
2019-01-09T10:32:02.579Z,1010.31
2019-01-09T10:33:02.558Z,1010.35
2019-01-09T10:34:02.545Z,1010.33
2019-01-09T10:35:02.538Z,1010.38
2019-01-09T10:36:02.530Z,1010.32
2019-01-09T10:37:02.522Z,1010.34
2019-01-09T10:38:02.526Z,1010.31
2019-01-09T10:39:02.503Z,1010.37
2019-01-09T10:40:02.495Z,1010.34
2019-01-09T10:41:02.486Z,1010.34
2019-01-09T10:42:02.474Z,1010.33
2019-01-09T10:43:02.468Z,1010.37
2019-01-09T10:44:02.457Z,1010.41
2019-01-09T10:45:02.450Z,1010.34
2019-01-09T10:46:02.440Z,1010.40
2019-01-09T10:47:02.434Z,1010.36
2019-01-09T10:48:02.422Z,1010.35
2019-01-09T10:49:02.416Z,1010.38
2019-01-09T10:50:02.403Z,1010.31
2019-01-09T10:51:02.398Z,1010.34
2019-01-09T10:52:02.387Z,1010.26
2019-01-09T10:53:02.379Z,1010.33
2019-01-09T10:54:02.368Z,1010.32
2019-01-09T10:55:02.362Z,1010.32
2019-01-09T10:56:02.352Z,1010.33
2019-01-09T10:57:02.346Z,1010.32
2019-01-09T10:58:02.335Z,1010.36
2019-01-09T10:59:02.327Z,1010.33
2019-01-09T11:00:02.316Z,1010.39
2019-01-09T11:01:02.313Z,1010.35
2019-01-09T11:02:02.299Z,1010.36
2019-01-09T11:03:02.294Z,1010.41
2019-01-09T11:04:02.283Z,1010.41
2019-01-09T11:05:02.276Z,1010.42
2019-01-09T11:06:02.264Z,1010.38
2019-01-09T11:07:02.258Z,1010.35
2019-01-09T11:08:02.248Z,1010.41
2019-01-09T11:09:02.241Z,1010.36
2019-01-09T11:10:02.231Z,1010.36
2019-01-09T11:11:02.224Z,1010.40
2019-01-09T11:12:02.214Z,1010.38
2019-01-09T11:13:02.208Z,1010.30
2019-01-09T11:14:02.197Z,1010.29
2019-01-09T11:15:02.191Z,1010.31
2019-01-09T11:16:02.332Z,1010.25
2019-01-09T11:17:02.176Z,1010.24
2019-01-09T11:18:02.162Z,1010.29
2019-01-09T11:19:02.158Z,1010.29
2019-01-09T11:20:02.147Z,1010.23
2019-01-09T11:21:03.611Z,1010.20
2019-01-09T11:22:02.129Z,1010.18
2019-01-09T11:23:02.227Z,1010.26
2019-01-09T11:24:02.157Z,1010.20
2019-01-09T11:25:02.109Z,1010.20
2019-01-09T11:26:02.095Z,1010.23
2019-01-09T11:27:02.092Z,1010.14
2019-01-09T11:28:02.080Z,1010.16
2019-01-09T11:29:02.074Z,1010.24
2019-01-09T11:30:02.067Z,1010.23
2019-01-09T11:31:02.072Z,1010.15
2019-01-09T11:32:02.045Z,1010.14
2019-01-09T11:33:02.040Z,1010.16
2019-01-09T11:34:02.030Z,1010.20
2019-01-09T11:35:02.029Z,1010.13
2019-01-09T11:36:02.013Z,1010.18
2019-01-09T11:37:02.006Z,1010.21
2019-01-09T11:38:01.994Z,1010.20
2019-01-09T11:39:01.989Z,1010.16
2019-01-09T11:40:01.978Z,1010.17
2019-01-09T11:41:01.972Z,1010.15
2019-01-09T11:42:01.962Z,1010.20
2019-01-09T11:43:03.748Z,1010.10
2019-01-09T11:44:01.947Z,1010.09
2019-01-09T11:45:01.947Z,1010.15
2019-01-09T11:46:02.178Z,1010.15
2019-01-09T11:47:01.923Z,1010.19
2019-01-09T11:48:01.917Z,1010.21
2019-01-09T11:49:01.907Z,1010.27
2019-01-09T11:50:01.899Z,1010.16
2019-01-09T11:51:01.891Z,1010.20
2019-01-09T11:52:01.880Z,1010.19
2019-01-09T11:53:01.877Z,1010.18
2019-01-09T11:54:01.864Z,1010.17
2019-01-09T11:55:01.860Z,1010.24
2019-01-09T11:56:01.849Z,1010.26
2019-01-09T11:57:01.843Z,1010.21
2019-01-09T11:58:01.833Z,1010.18
2019-01-09T11:59:01.826Z,1010.20
2019-01-09T12:00:01.821Z,1010.16
2019-01-09T12:01:01.811Z,1010.30
2019-01-09T12:02:01.800Z,1010.17
2019-01-09T12:03:01.795Z,1010.23
2019-01-09T12:04:01.785Z,1010.24
2019-01-09T12:05:01.783Z,1010.28